Time;durP1;ratioP1;P1;durP2;ratioP2;P2;SDS_P1;SDS_P2;PMS_P1;PMS_P2;Temp;Humidity;BMP_temperature;BMP_pressure;BME280_temperature;BME280_humidity;BME280_pressure;Samples;Min_cycle;Max_cycle;Signal;HPM_P1;HPM_P2
2021/10/24 00:00:43;;;;;;;13.57;10.70;;;4.50;99.90;;;;;;5051788;28;20092;-76
2021/10/24 00:03:08;;;;;;;12.25;10.13;;;4.50;99.90;;;;;;5054938;28;20088;-77
2021/10/24 00:05:34;;;;;;;13.25;9.77;;;4.50;99.90;;;;;;5053295;28;20025;-76
2021/10/24 00:07:59;;;;;;;10.63;8.80;;;4.50;99.90;;;;;;5051856;28;20021;-80
2021/10/24 00:10:25;;;;;;;13.48;10.43;;;4.50;99.90;;;;;;5017701;28;20106;-76
2021/10/24 00:12:51;;;;;;;14.00;9.40;;;4.50;99.90;;;;;;5047722;28;20017;-78
2021/10/24 00:15:16;;;;;;;16.20;10.10;;;4.50;99.90;;;;;;5041730;28;20029;-78
2021/10/24 00:17:42;;;;;;;14.23;10.80;;;4.40;99.90;;;;;;5041965;28;20030;-79
2021/10/24 00:20:08;;;;;;;16.80;10.75;;;4.40;99.90;;;;;;5040772;28;20094;-79
2021/10/24 00:22:33;;;;;;;18.95;12.23;;;4.30;99.90;;;;;;5030511;28;20022;-78
2021/10/24 00:24:59;;;;;;;15.38;11.13;;;4.30;99.90;;;;;;5026302;28;20026;-78
2021/10/24 00:27:26;;;;;;;13.85;10.70;;;4.30;99.90;;;;;;5026474;28;20068;-78
2021/10/24 00:29:52;;;;;;;12.68;10.85;;;4.20;99.90;;;;;;5040799;28;20059;-80
2021/10/24 00:32:17;;;;;;;12.40;10.50;;;4.30;99.90;;;;;;5023830;28;20026;-79
2021/10/24 00:34:43;;;;;;;16.60;11.07;;;4.20;99.90;;;;;;5039674;28;20105;-78
2021/10/24 00:37:09;;;;;;;16.15;12.23;;;4.30;99.90;;;;;;5021011;28;20026;-78
2021/10/24 00:39:34;;;;;;;16.55;13.13;;;4.20;99.90;;;;;;5024139;28;20021;-79
2021/10/24 00:42:00;;;;;;;18.80;12.65;;;4.20;99.90;;;;;;5040111;28;20033;-79
2021/10/24 00:44:28;;;;;;;16.40;12.68;;;4.20;99.90;;;;;;5047231;28;20068;-79
2021/10/24 00:46:56;;;;;;;19.35;12.30;;;4.20;99.90;;;;;;5042112;28;20045;-77
2021/10/24 00:49:23;;;;;;;17.88;12.82;;;4.20;99.90;;;;;;5042962;28;20120;-78
2021/10/24 00:51:51;;;;;;;14.00;9.50;;;4.20;99.90;;;;;;5047811;28;20045;-79
2021/10/24 00:54:20;;;;;;;16.60;11.07;;;4.10;99.90;;;;;;5020827;28;20033;-77
2021/10/24 00:56:49;;;;;;;13.00;9.65;;;4.10;99.90;;;;;;5053669;28;20085;-78
2021/10/24 00:59:15;;;;;;;13.10;8.70;;;4.00;99.90;;;;;;5040022;28;20029;-78
2021/10/24 01:01:41;;;;;;;13.98;8.48;;;4.00;99.90;;;;;;5017965;28;20025;-80
2021/10/24 01:04:07;;;;;;;11.02;8.38;;;4.00;99.90;;;;;;5039804;28;20029;-78
2021/10/24 01:06:35;;;;;;;9.52;7.38;;;4.00;99.90;;;;;;5051265;28;20034;-76
2021/10/24 01:09:02;;;;;;;11.98;8.30;;;4.00;99.90;;;;;;5041967;28;20021;-76
2021/10/24 01:11:28;;;;;;;10.98;7.97;;;4.00;99.90;;;;;;5046080;28;20040;-78
2021/10/24 01:13:55;;;;;;;13.82;8.02;;;4.00;99.90;;;;;;5058706;28;20010;-76
2021/10/24 01:16:21;;;;;;;10.52;8.15;;;4.00;99.90;;;;;;5049574;28;20037;-76
2021/10/24 01:18:47;;;;;;;15.70;8.57;;;4.00;99.90;;;;;;5037456;28;20061;-77
2021/10/24 01:21:13;;;;;;;9.25;8.25;;;4.00;99.90;;;;;;5058675;28;20022;-78
2021/10/24 01:23:39;;;;;;;10.45;8.57;;;4.00;99.90;;;;;;5056986;28;20029;-78
2021/10/24 01:26:06;;;;;;;11.07;8.18;;;4.00;99.90;;;;;;5058132;28;20029;-78
2021/10/24 01:28:33;;;;;;;10.07;7.85;;;4.00;99.90;;;;;;5058253;28;20028;-80
2021/10/24 01:30:58;;;;;;;14.27;8.05;;;4.00;99.90;;;;;;5057613;28;20017;-78
2021/10/24 01:33:24;;;;;;;10.65;9.35;;;3.90;99.90;;;;;;5039605;28;20093;-77
2021/10/24 01:35:57;;;;;;;12.50;8.48;;;3.90;99.90;;;;;;5056921;28;20049;-78
2021/10/24 01:38:24;;;;;;;13.38;9.75;;;3.80;99.90;;;;;;5056996;28;20013;-77
2021/10/24 01:40:51;;;;;;;12.93;8.93;;;3.80;99.90;;;;;;5051069;28;20025;-79
2021/10/24 01:43:19;;;;;;;12.60;8.15;;;3.70;99.90;;;;;;5045713;28;20034;-79
2021/10/24 01:45:45;;;;;;;10.27;7.82;;;3.70;99.90;;;;;;5046565;28;20021;-79
2021/10/24 01:48:11;;;;;;;10.88;7.28;;;3.70;99.90;;;;;;5043877;28;20056;-77
2021/10/24 01:50:36;;;;;;;10.05;7.10;;;3.70;99.90;;;;;;5049679;28;20017;-77
2021/10/24 01:53:02;;;;;;;10.77;7.40;;;3.70;99.90;;;;;;5056315;28;20021;-77
2021/10/24 01:55:28;;;;;;;9.15;7.47;;;3.60;99.90;;;;;;5034119;28;20026;-77
2021/10/24 01:57:54;;;;;;;14.10;7.57;;;3.60;99.90;;;;;;5053005;28;20028;-78
2021/10/24 02:00:21;;;;;;;12.00;7.55;;;3.60;99.90;;;;;;5035273;28;20097;-77
2021/10/24 02:02:47;;;;;;;12.55;7.82;;;3.60;99.90;;;;;;5052796;28;20024;-77
2021/10/24 02:05:13;;;;;;;9.27;7.75;;;3.60;99.90;;;;;;5034898;28;20029;-76
2021/10/24 02:07:39;;;;;;;10.52;6.70;;;3.60;99.90;;;;;;5052124;28;20056;-78
2021/10/24 02:10:07;;;;;;;11.48;7.22;;;3.60;99.90;;;;;;5032356;28;20034;-78
2021/10/24 02:12:34;;;;;;;9.95;7.80;;;3.50;99.90;;;;;;5048817;28;20112;-77
2021/10/24 02:15:00;;;;;;;10.48;6.90;;;3.50;99.90;;;;;;5049587;28;20021;-77
2021/10/24 02:17:25;;;;;;;12.52;8.00;;;3.50;99.90;;;;;;5054803;28;20064;-77
2021/10/24 02:19:51;;;;;;;8.73;7.60;;;3.60;99.90;;;;;;5052796;28;20064;-76
2021/10/24 02:22:17;;;;;;;12.18;7.85;;;3.50;99.90;;;;;;5052486;28;20037;-78
2021/10/24 02:24:43;;;;;;;10.50;7.90;;;3.60;99.90;;;;;;5043237;28;20025;-78
2021/10/24 02:27:09;;;;;;;9.88;6.60;;;3.50;99.90;;;;;;5054114;28;20080;-78
2021/10/24 02:29:36;;;;;;;12.48;6.82;;;3.50;99.90;;;;;;5047907;28;20022;-78
2021/10/24 02:32:02;;;;;;;13.15;7.20;;;3.50;99.90;;;;;;5050394;28;20021;-77
2021/10/24 02:34:27;;;;;;;11.88;7.40;;;3.40;99.90;;;;;;5041420;28;20029;-78
2021/10/24 02:36:54;;;;;;;13.13;7.50;;;3.40;99.90;;;;;;5040482;28;20064;-76
2021/10/24 02:39:20;;;;;;;12.60;7.95;;;3.50;99.90;;;;;;5045899;28;20029;-75
2021/10/24 02:41:45;;;;;;;12.55;7.90;;;3.50;99.90;;;;;;5049680;28;20036;-77
2021/10/24 02:44:13;;;;;;;8.68;7.70;;;3.40;99.90;;;;;;5031892;28;20089;-76
2021/10/24 02:46:39;;;;;;;10.95;8.60;;;3.40;99.90;;;;;;5038420;28;20029;-76
2021/10/24 02:49:05;;;;;;;12.27;9.68;;;3.40;99.90;;;;;;5033433;28;20021;-78
2021/10/24 02:51:31;;;;;;;12.45;9.02;;;3.30;99.90;;;;;;5040974;28;20022;-77
2021/10/24 02:53:57;;;;;;;11.90;9.18;;;3.30;99.90;;;;;;5027031;28;20071;-78
2021/10/24 02:56:24;;;;;;;13.80;9.55;;;3.40;99.90;;;;;;5039662;28;20076;-80
2021/10/24 02:58:49;;;;;;;9.50;7.68;;;3.40;99.90;;;;;;5021179;28;20030;-80
2021/10/24 03:01:15;;;;;;;10.20;7.03;;;3.40;99.90;;;;;;5037953;28;20033;-80
2021/10/24 03:03:41;;;;;;;8.93;7.53;;;3.40;99.90;;;;;;5038590;28;20053;-80
2021/10/24 03:06:06;;;;;;;10.63;8.50;;;3.40;99.90;;;;;;5043572;28;20069;-77
2021/10/24 03:08:33;;;;;;;10.02;6.82;;;3.40;99.90;;;;;;5030497;28;20040;-76
2021/10/24 03:10:59;;;;;;;19.92;9.00;;;3.30;99.90;;;;;;5053775;28;20049;-78
2021/10/24 03:13:24;;;;;;;9.55;6.50;;;3.30;99.90;;;;;;5045989;28;20025;-78
2021/10/24 03:15:50;;;;;;;6.95;6.03;;;3.30;99.90;;;;;;5045779;28;20071;-77
2021/10/24 03:18:15;;;;;;;9.02;6.18;;;3.20;99.90;;;;;;5031067;28;20512;-77
2021/10/24 03:20:41;;;;;;;11.30;6.53;;;3.30;99.90;;;;;;5047511;28;20101;-79
2021/10/24 03:23:07;;;;;;;9.20;6.60;;;3.30;99.90;;;;;;5046607;28;20080;-78
2021/10/24 03:25:32;;;;;;;9.05;6.38;;;3.20;99.90;;;;;;5030431;28;20040;-77
2021/10/24 03:27:58;;;;;;;8.43;6.45;;;3.20;99.90;;;;;;5045994;28;20037;-78
2021/10/24 03:30:24;;;;;;;8.93;6.70;;;3.20;99.90;;;;;;5048046;28;20033;-79
2021/10/24 03:32:49;;;;;;;10.70;8.60;;;3.20;99.90;;;;;;5037791;28;20045;-80
2021/10/24 03:35:15;;;;;;;11.80;6.80;;;3.10;99.90;;;;;;5037151;28;20049;-80
2021/10/24 03:37:40;;;;;;;11.52;7.32;;;3.10;99.90;;;;;;5036598;28;20033;-80
2021/10/24 03:40:07;;;;;;;7.10;6.05;;;3.10;99.90;;;;;;5036925;28;20030;-80
2021/10/24 03:42:32;;;;;;;8.65;6.90;;;3.10;99.90;;;;;;5036802;28;20559;-80
2021/10/24 03:44:58;;;;;;;8.43;6.80;;;3.10;99.90;;;;;;5036906;28;20034;-78
2021/10/24 03:47:23;;;;;;;11.27;7.95;;;3.10;99.90;;;;;;5037387;28;20033;-78
2021/10/24 03:49:49;;;;;;;10.25;6.35;;;3.10;99.90;;;;;;5019463;28;20026;-79
2021/10/24 03:52:14;;;;;;;10.75;6.13;;;3.10;99.90;;;;;;5019198;28;20032;-78
2021/10/24 03:54:40;;;;;;;7.80;7.00;;;3.10;99.90;;;;;;5036143;28;20036;-77
2021/10/24 03:57:06;;;;;;;13.70;6.40;;;3.10;99.90;;;;;;5039271;28;20063;-80
2021/10/24 03:59:31;;;;;;;8.50;6.75;;;3.10;99.90;;;;;;5040647;28;20053;-79
2021/10/24 04:01:57;;;;;;;8.75;6.40;;;3.10;99.90;;;;;;5041515;28;20477;-76
2021/10/24 04:04:22;;;;;;;10.30;6.75;;;3.00;99.90;;;;;;5051530;28;20481;-76
2021/10/24 04:06:48;;;;;;;10.52;6.43;;;3.00;99.90;;;;;;5032202;28;20056;-79
2021/10/24 04:09:13;;;;;;;9.13;6.80;;;3.00;99.90;;;;;;5040359;28;20501;-81
2021/10/24 04:11:39;;;;;;;15.43;8.98;;;3.00;99.90;;;;;;5022513;28;20393;-79
2021/10/24 04:14:05;;;;;;;7.82;6.57;;;3.00;99.90;;;;;;5040672;28;20025;-79
2021/10/24 04:16:31;;;;;;;12.90;7.80;;;3.00;99.90;;;;;;5042461;28;20021;-78
2021/10/24 04:18:56;;;;;;;9.35;6.90;;;3.00;99.90;;;;;;5044790;28;20131;-78
2021/10/24 04:21:22;;;;;;;10.55;7.78;;;3.00;99.90;;;;;;5042868;28;20034;-80
2021/10/24 04:23:48;;;;;;;10.90;8.43;;;2.90;99.90;;;;;;5043239;28;20040;-78
2021/10/24 04:26:14;;;;;;;12.60;7.97;;;2.90;99.90;;;;;;5025577;28;20055;-78
2021/10/24 04:28:40;;;;;;;8.23;7.38;;;2.80;99.90;;;;;;5050064;28;20560;-77
2021/10/24 04:31:05;;;;;;;12.30;8.18;;;2.80;99.90;;;;;;5051774;28;20052;-78
2021/10/24 04:33:31;;;;;;;17.00;7.85;;;2.80;99.90;;;;;;5052894;28;20049;-76
2021/10/24 04:35:57;;;;;;;11.90;8.85;;;2.80;99.90;;;;;;5041773;28;20025;-79
2021/10/24 04:38:22;;;;;;;10.00;6.80;;;2.80;99.90;;;;;;5050535;28;20040;-78
2021/10/24 04:40:48;;;;;;;12.35;8.10;;;2.80;99.90;;;;;;5019934;28;20021;-77
2021/10/24 04:43:15;;;;;;;15.32;9.10;;;2.80;99.90;;;;;;5054674;28;20049;-77
2021/10/24 04:45:41;;;;;;;10.00;7.30;;;2.80;99.90;;;;;;5047045;28;20425;-76
2021/10/24 04:48:07;;;;;;;12.50;7.20;;;2.80;99.90;;;;;;5050112;28;20036;-78
2021/10/24 04:50:33;;;;;;;13.00;7.32;;;2.80;99.90;;;;;;5022238;28;20018;-78
2021/10/24 04:52:59;;;;;;;12.13;7.55;;;2.80;99.90;;;;;;5040252;28;20053;-78
2021/10/24 04:55:24;;;;;;;9.10;6.53;;;2.80;99.90;;;;;;5039445;28;20504;-80
2021/10/24 04:57:50;;;;;;;9.88;7.40;;;2.70;99.90;;;;;;5039413;28;20022;-79
2021/10/24 05:00:15;;;;;;;8.82;6.40;;;2.70;99.90;;;;;;5039630;28;20091;-80
2021/10/24 05:02:41;;;;;;;11.10;7.30;;;2.70;99.90;;;;;;5039260;28;20064;-80
2021/10/24 05:05:09;;;;;;;12.57;7.50;;;2.80;99.90;;;;;;5039581;28;20022;-80
2021/10/24 05:07:35;;;;;;;15.30;6.82;;;2.70;99.90;;;;;;5038440;28;20083;-78
2021/10/24 05:10:01;;;;;;;9.70;6.95;;;2.70;99.90;;;;;;5046099;28;20027;-77
2021/10/24 05:12:27;;;;;;;10.80;6.95;;;2.80;99.90;;;;;;5039835;28;20034;-78
2021/10/24 05:14:52;;;;;;;10.48;6.85;;;2.70;99.90;;;;;;5034039;28;20049;-80
2021/10/24 05:17:18;;;;;;;11.25;7.97;;;2.70;99.90;;;;;;5039622;28;20030;-80
2021/10/24 05:19:44;;;;;;;14.88;8.48;;;2.70;99.90;;;;;;5021337;28;20540;-77
2021/10/24 05:22:10;;;;;;;16.08;8.27;;;2.70;99.90;;;;;;5039714;28;20093;-80
2021/10/24 05:24:36;;;;;;;17.35;10.95;;;2.60;99.90;;;;;;5024636;28;20061;-76
2021/10/24 05:27:01;;;;;;;17.55;10.40;;;2.60;99.90;;;;;;5032747;28;20029;-78
2021/10/24 05:29:27;;;;;;;20.90;9.85;;;2.60;99.90;;;;;;5038984;28;20033;-80
2021/10/24 05:31:52;;;;;;;16.90;10.23;;;2.60;99.90;;;;;;5040747;28;20025;-79
2021/10/24 05:34:18;;;;;;;12.35;9.30;;;2.50;99.90;;;;;;5039864;28;20029;-78
2021/10/24 05:36:44;;;;;;;13.75;9.20;;;2.50;99.90;;;;;;5040825;28;20025;-78
2021/10/24 05:39:09;;;;;;;11.77;8.63;;;2.60;99.90;;;;;;5040884;28;20025;-78
2021/10/24 05:41:35;;;;;;;15.75;10.70;;;2.60;99.90;;;;;;5039448;28;20161;-80
2021/10/24 05:44:01;;;;;;;11.77;8.77;;;2.60;99.90;;;;;;5022500;28;20029;-78
2021/10/24 05:46:27;;;;;;;14.00;8.82;;;2.60;99.90;;;;;;5039604;28;20034;-79
2021/10/24 05:48:53;;;;;;;13.27;9.25;;;2.60;99.90;;;;;;5039303;28;20500;-79
2021/10/24 05:51:19;;;;;;;13.68;9.10;;;2.60;99.90;;;;;;5048617;28;20492;-77
2021/10/24 05:53:44;;;;;;;19.60;9.52;;;2.60;99.90;;;;;;5067978;23;20362;-77
2021/10/24 05:56:10;;;;;;;13.98;7.95;;;2.60;99.90;;;;;;5052848;28;20392;-77
2021/10/24 05:58:36;;;;;;;13.23;8.05;;;2.60;99.90;;;;;;5035507;28;20024;-76
2021/10/24 06:01:01;;;;;;;13.32;7.68;;;2.60;99.90;;;;;;5055785;28;20029;-77
2021/10/24 06:03:27;;;;;;;13.65;7.43;;;2.60;99.90;;;;;;5037079;28;20017;-75
2021/10/24 06:05:52;;;;;;;12.88;7.03;;;2.60;99.90;;;;;;5035075;28;20477;-75
2021/10/24 06:08:22;;;;;;;9.02;7.05;;;2.60;99.90;;;;;;5035897;28;20040;-75
2021/10/24 06:10:52;;;;;;;9.20;7.97;;;2.60;99.90;;;;;;5037363;28;20101;-77
2021/10/24 06:13:18;;;;;;;10.50;6.47;;;2.60;99.90;;;;;;5019797;28;20504;-76
2021/10/24 06:15:44;;;;;;;10.50;6.75;;;2.60;99.90;;;;;;5037467;28;20033;-77
2021/10/24 06:18:10;;;;;;;13.90;8.80;;;2.70;99.90;;;;;;5017398;28;20397;-77
2021/10/24 06:20:36;;;;;;;11.40;7.60;;;2.70;99.90;;;;;;5035200;28;20018;-77
2021/10/24 06:23:02;;;;;;;9.35;6.75;;;2.70;99.90;;;;;;5037095;28;20469;-76
2021/10/24 06:25:28;;;;;;;9.02;7.63;;;2.80;99.90;;;;;;5036835;28;20369;-77
2021/10/24 06:27:53;;;;;;;9.15;7.68;;;2.80;99.90;;;;;;5023194;28;20021;-77
2021/10/24 06:30:22;;;;;;;9.73;7.25;;;2.80;99.90;;;;;;5033011;28;20064;-77
2021/10/24 06:32:49;;;;;;;9.65;7.90;;;2.80;99.90;;;;;;5018182;28;20071;-76
2021/10/24 06:35:15;;;;;;;21.67;8.52;;;2.90;99.90;;;;;;5036160;28;20022;-75
2021/10/24 06:37:43;;;;;;;8.68;6.95;;;2.90;99.90;;;;;;5027073;28;20029;-76
2021/10/24 06:40:10;;;;;;;11.95;7.00;;;2.90;99.90;;;;;;5034710;28;20025;-78
2021/10/24 06:42:36;;;;;;;10.27;7.30;;;3.00;99.90;;;;;;5035675;28;20461;-76
2021/10/24 06:45:03;;;;;;;13.18;8.10;;;3.20;99.90;;;;;;5016821;28;20033;-76
2021/10/24 06:47:29;;;;;;;12.57;7.25;;;3.30;99.90;;;;;;5009095;28;20122;-77
2021/10/24 06:49:54;;;;;;;10.27;7.88;;;3.30;99.90;;;;;;5035817;28;20077;-76
2021/10/24 06:52:20;;;;;;;8.25;6.82;;;3.30;99.90;;;;;;5037418;28;20060;-77
2021/10/24 06:54:46;;;;;;;9.63;8.10;;;3.30;99.90;;;;;;5039398;28;20029;-76
2021/10/24 06:57:11;;;;;;;9.23;7.47;;;3.40;99.90;;;;;;5018544;28;20040;-76
2021/10/24 06:59:42;;;;;;;10.68;6.88;;;3.40;99.90;;;;;;5039247;28;20038;-77
2021/10/24 07:02:08;;;;;;;16.17;7.93;;;3.60;99.90;;;;;;5035089;28;20550;-77
2021/10/24 07:04:33;;;;;;;11.70;8.23;;;3.60;99.90;;;;;;5038956;28;20132;-76
2021/10/24 07:06:59;;;;;;;10.23;7.35;;;3.80;99.90;;;;;;5041713;28;20033;-76
2021/10/24 07:09:24;;;;;;;8.90;7.40;;;4.00;99.90;;;;;;5040355;28;20120;-76
2021/10/24 07:11:50;;;;;;;11.18;7.43;;;4.00;99.90;;;;;;5023106;28;20052;-77
2021/10/24 07:14:15;;;;;;;7.82;7.00;;;4.10;99.90;;;;;;5049846;28;20029;-75
2021/10/24 07:16:41;;;;;;;10.65;8.05;;;4.10;99.90;;;;;;5025633;28;20028;-77
2021/10/24 07:19:07;;;;;;;9.15;6.90;;;4.30;99.90;;;;;;5044927;28;20064;-77
2021/10/24 07:21:32;;;;;;;10.70;8.80;;;4.30;99.90;;;;;;5042012;28;20025;-75
2021/10/24 07:23:58;;;;;;;10.57;8.18;;;4.30;99.90;;;;;;5040538;28;20036;-76
2021/10/24 07:26:23;;;;;;;11.25;7.22;;;4.50;99.90;;;;;;5019105;28;20029;-76
2021/10/24 07:28:49;;;;;;;13.77;8.57;;;4.50;99.90;;;;;;5021889;28;20033;-77
2021/10/24 07:31:14;;;;;;;11.75;7.00;;;4.60;99.90;;;;;;5041481;28;20432;-77
2021/10/24 07:33:40;;;;;;;8.65;7.40;;;4.70;99.90;;;;;;5044732;28;20033;-76
2021/10/24 07:36:06;;;;;;;11.65;7.97;;;4.80;99.90;;;;;;5045238;28;20026;-76
2021/10/24 07:38:31;;;;;;;9.48;7.75;;;4.80;99.90;;;;;;5043862;28;20029;-76
2021/10/24 07:40:57;;;;;;;11.35;8.65;;;4.70;99.90;;;;;;5039688;28;20025;-76
2021/10/24 07:43:24;;;;;;;9.75;7.93;;;4.70;99.90;;;;;;5043738;28;20060;-77
2021/10/24 07:45:51;;;;;;;11.10;7.30;;;4.80;99.90;;;;;;5042313;28;20018;-76
2021/10/24 07:48:17;;;;;;;14.35;8.75;;;4.80;99.90;;;;;;5039072;28;20025;-76
2021/10/24 07:50:43;;;;;;;16.95;9.90;;;4.90;99.90;;;;;;5038879;28;20037;-76
2021/10/24 07:53:10;;;;;;;8.85;7.80;;;4.90;99.90;;;;;;5018883;28;20018;-77
2021/10/24 07:55:36;;;;;;;7.90;6.85;;;4.90;99.90;;;;;;5038275;28;20489;-78
2021/10/24 07:58:03;;;;;;;9.73;7.53;;;5.00;99.90;;;;;;5036534;28;20041;-76
2021/10/24 08:00:29;;;;;;;9.90;7.82;;;5.10;99.90;;;;;;5035881;28;20026;-77
2021/10/24 08:02:55;;;;;;;10.68;7.30;;;5.20;99.90;;;;;;5038335;28;20061;-76
2021/10/24 08:05:20;;;;;;;8.68;7.32;;;5.30;99.90;;;;;;5020684;28;20025;-76
2021/10/24 08:07:46;;;;;;;9.20;6.47;;;5.50;99.90;;;;;;5038667;28;20021;-76
2021/10/24 08:10:13;;;;;;;10.00;6.20;;;5.70;99.90;;;;;;5042896;28;20028;-77
2021/10/24 08:12:42;;;;;;;7.82;6.55;;;5.80;99.90;;;;;;5055119;28;20056;-75
2021/10/24 08:15:11;;;;;;;11.88;6.97;;;5.80;99.90;;;;;;5041778;28;20018;-75
2021/10/24 08:17:40;;;;;;;10.98;6.28;;;5.80;99.90;;;;;;5058383;28;20119;-74
2021/10/24 08:20:07;;;;;;;8.13;6.22;;;5.90;99.90;;;;;;5050766;28;20048;-76
2021/10/24 08:22:33;;;;;;;9.95;6.25;;;6.00;99.90;;;;;;5054381;28;20040;-79
2021/10/24 08:24:59;;;;;;;8.07;5.90;;;6.20;99.90;;;;;;5047467;28;20033;-76
2021/10/24 08:27:30;;;;;;;8.73;7.07;;;6.40;99.90;;;;;;5027446;28;20033;-77
2021/10/24 08:29:57;;;;;;;8.43;6.80;;;6.30;99.90;;;;;;5048847;28;20100;-78
2021/10/24 08:32:22;;;;;;;10.27;6.95;;;6.40;99.90;;;;;;5048252;28;20025;-77
2021/10/24 08:34:48;;;;;;;10.25;6.85;;;6.60;99.90;;;;;;5051049;28;20036;-78
2021/10/24 08:37:14;;;;;;;12.05;8.43;;;6.80;99.90;;;;;;5047938;28;20033;-77
2021/10/24 08:39:41;;;;;;;10.38;6.53;;;6.80;99.90;;;;;;5044912;28;20033;-76
2021/10/24 08:42:07;;;;;;;10.68;7.20;;;6.90;99.90;;;;;;5020714;28;20053;-77
2021/10/24 08:44:33;;;;;;;9.80;7.47;;;7.00;99.90;;;;;;5023026;28;20426;-78
2021/10/24 08:46:59;;;;;;;6.55;5.50;;;7.00;99.90;;;;;;5042741;28;20121;-77
2021/10/24 08:49:24;;;;;;;9.32;7.07;;;7.30;99.90;;;;;;5050018;28;20037;-77
2021/10/24 08:51:50;;;;;;;9.20;6.53;;;7.30;99.90;;;;;;5048512;28;20025;-79
2021/10/24 08:54:25;;;;;;;10.40;6.78;;;7.40;99.90;;;;;;5034865;28;20045;-77
2021/10/24 08:56:51;;;;;;;7.75;6.55;;;7.50;99.90;;;;;;5051352;28;20041;-78
2021/10/24 08:59:16;;;;;;;9.00;6.80;;;7.60;99.90;;;;;;5048595;28;20032;-78
2021/10/24 09:01:50;;;;;;;7.72;6.70;;;7.60;99.90;;;;;;5055905;28;20025;-77
2021/10/24 09:04:16;;;;;;;9.23;6.57;;;7.70;99.90;;;;;;5055178;28;20021;-78
2021/10/24 09:06:58;;;;;;;8.90;6.53;;;7.90;99.90;;;;;;5049954;28;20100;-82
2021/10/24 09:09:29;;;;;;;12.60;7.18;;;8.00;99.90;;;;;;5045694;28;20028;-81
2021/10/24 09:12:04;;;;;;;8.18;6.40;;;8.20;99.90;;;;;;5048788;28;20033;-78
2021/10/24 09:14:45;;;;;;;8.27;6.30;;;8.30;99.90;;;;;;5046963;28;20024;-79
2021/10/24 09:17:24;;;;;;;9.95;6.70;;;8.40;99.90;;;;;;5044762;28;20029;-78
2021/10/24 09:19:55;;;;;;;17.02;7.28;;;8.50;99.90;;;;;;5044570;28;20026;-76
2021/10/24 09:22:39;;;;;;;9.65;5.35;;;8.70;99.90;;;;;;5031051;28;20025;-77
2021/10/24 09:25:16;;;;;;;7.72;7.03;;;8.80;99.90;;;;;;5049765;28;20045;-77
2021/10/24 09:27:55;;;;;;;6.57;5.35;;;8.90;99.90;;;;;;5047923;28;20136;-80
2021/10/24 09:30:33;;;;;;;7.03;5.47;;;8.90;99.90;;;;;;5045116;28;20021;-78
2021/10/24 09:33:09;;;;;;;6.38;5.45;;;9.10;99.90;;;;;;5049209;28;20017;-77
2021/10/24 09:35:42;;;;;;;6.30;5.60;;;9.20;99.90;;;;;;5029358;28;20027;-78
2021/10/24 09:38:14;;;;;;;9.45;5.55;;;9.10;99.90;;;;;;5045631;28;20121;-79
2021/10/24 09:40:46;;;;;;;8.88;5.68;;;9.30;99.90;;;;;;5047713;28;20075;-79
2021/10/24 09:43:17;;;;;;;8.40;5.80;;;9.40;99.90;;;;;;5045691;28;20037;-78
2021/10/24 09:45:45;;;;;;;7.32;4.97;;;9.40;99.90;;;;;;5045561;28;20021;-80
2021/10/24 09:48:13;;;;;;;6.90;4.65;;;9.60;99.90;;;;;;5028322;28;20030;-79
2021/10/24 09:50:46;;;;;;;8.43;4.88;;;9.70;99.90;;;;;;5044065;28;20022;-81
2021/10/24 09:53:16;;;;;;;6.20;5.28;;;9.70;99.90;;;;;;5033092;28;20412;-79
2021/10/24 09:55:44;;;;;;;7.50;5.72;;;9.90;99.90;;;;;;5028724;28;20037;-79
2021/10/24 09:58:12;;;;;;;7.45;5.10;;;10.10;99.90;;;;;;5046240;28;20022;-77
2021/10/24 10:00:39;;;;;;;6.18;5.57;;;10.10;99.90;;;;;;5033236;28;20029;-80
2021/10/24 10:03:05;;;;;;;6.15;4.55;;;10.20;99.90;;;;;;5055956;28;20002;-77
2021/10/24 10:05:31;;;;;;;7.25;4.30;;;10.30;99.90;;;;;;5057105;28;20094;-80
2021/10/24 10:07:58;;;;;;;6.10;4.53;;;10.40;99.90;;;;;;5054165;28;20032;-78
2021/10/24 10:10:25;;;;;;;5.47;4.85;;;10.40;99.90;;;;;;5047737;28;20553;-79
2021/10/24 10:12:52;;;;;;;7.03;4.88;;;10.50;99.90;;;;;;5046286;28;20045;-78
2021/10/24 10:15:21;;;;;;;8.48;5.55;;;10.60;99.90;;;;;;5046722;28;20037;-80
2021/10/24 10:17:55;;;;;;;6.07;5.00;;;10.60;99.90;;;;;;5029865;28;20047;-80
2021/10/24 10:20:27;;;;;;;6.78;4.35;;;10.70;99.90;;;;;;5046941;28;20026;-79
2021/10/24 10:23:07;;;;;;;6.55;5.00;;;10.90;99.90;;;;;;5045459;28;20044;-77
2021/10/24 10:25:35;;;;;;;8.88;5.35;;;11.00;99.90;;;;;;5045923;28;20042;-79
2021/10/24 10:28:02;;;;;;;4.50;4.05;;;11.10;99.90;;;;;;5046864;28;20025;-81
2021/10/24 10:30:35;;;;;;;5.82;4.82;;;11.10;99.90;;;;;;5047269;28;20030;-78
2021/10/24 10:33:21;;;;;;;5.53;4.00;;;11.20;99.90;;;;;;5044145;28;20085;-80
2021/10/24 10:35:57;;;;;;;7.85;3.70;;;11.30;99.90;;;;;;5045213;28;20028;-80
2021/10/24 10:38:31;;;;;;;5.97;3.90;;;11.40;99.90;;;;;;5044818;28;20114;-78
2021/10/24 10:40:57;;;;;;;6.78;3.95;;;11.50;99.90;;;;;;5045450;28;20022;-79
2021/10/24 10:43:23;;;;;;;5.88;4.82;;;11.50;99.90;;;;;;5044022;28;20432;-79
2021/10/24 10:45:57;;;;;;;6.35;4.40;;;11.70;99.90;;;;;;5026936;28;20064;-78
2021/10/24 10:48:26;;;;;;;4.88;3.78;;;11.80;99.90;;;;;;5047154;28;20064;-80
2021/10/24 10:51:19;;;;;;;4.25;3.38;;;11.80;99.90;;;;;;5029682;28;20021;-80
2021/10/24 10:53:47;;;;;;;4.07;3.08;;;11.80;99.90;;;;;;5046710;28;20041;-79
2021/10/24 10:56:14;;;;;;;4.28;2.95;;;11.80;99.90;;;;;;5047681;28;20400;-79
2021/10/24 10:58:43;;;;;;;4.95;2.88;;;11.90;99.90;;;;;;5046989;28;20029;-79
2021/10/24 11:01:19;;;;;;;5.20;2.50;;;12.00;99.90;;;;;;5047572;28;20037;-80
2021/10/24 11:03:46;;;;;;;4.07;2.65;;;12.00;99.90;;;;;;5046614;28;20594;-80
2021/10/24 11:06:38;;;;;;;3.85;2.45;;;12.20;99.90;;;;;;5047533;28;20358;-76
2021/10/24 11:09:32;;;;;;;3.65;2.78;;;12.20;99.90;;;;;;5022240;28;20057;-77
2021/10/24 11:11:58;;;;;;;4.40;2.97;;;12.30;99.90;;;;;;5049152;28;20021;-80
2021/10/24 11:14:32;;;;;;;3.78;2.72;;;12.40;99.90;;;;;;5048058;28;20044;-80
2021/10/24 11:16:59;;;;;;;6.38;3.38;;;12.40;99.90;;;;;;5048411;28;20485;-80
2021/10/24 11:19:37;;;;;;;5.38;2.80;;;12.40;99.90;;;;;;5053233;28;20083;-78
2021/10/24 11:22:14;;;;;;;4.88;2.78;;;12.60;99.90;;;;;;5053557;28;20029;-78
2021/10/24 11:24:40;;;;;;;2.95;2.33;;;12.70;99.90;;;;;;5054893;28;20013;-77
2021/10/24 11:27:27;;;;;;;4.78;2.58;;;12.70;99.90;;;;;;5053512;28;20099;-80
2021/10/24 11:30:00;;;;;;;3.83;2.50;;;12.60;99.90;;;;;;5041971;28;20014;-80
2021/10/24 11:32:30;;;;;;;4.55;2.22;;;12.60;99.90;;;;;;5052841;28;20022;-79
2021/10/24 11:34:56;;;;;;;6.93;2.97;;;12.60;99.90;;;;;;5048129;28;20020;-79
2021/10/24 11:37:41;;;;;;;4.20;2.58;;;12.70;99.90;;;;;;5047795;28;20085;-79
2021/10/24 11:40:13;;;;;;;5.45;2.20;;;12.80;99.90;;;;;;5033391;28;20393;-79
2021/10/24 11:42:40;;;;;;;2.60;2.38;;;12.80;99.90;;;;;;5046875;28;20049;-79
2021/10/24 11:45:43;;;;;;;2.28;2.03;;;12.90;99.90;;;;;;5045127;28;20033;-80
2021/10/24 11:48:09;;;;;;;3.45;2.60;;;13.10;99.90;;;;;;5038096;28;20065;-79
2021/10/24 11:50:50;;;;;;;3.88;2.42;;;13.10;99.90;;;;;;5048983;28;20025;-80
2021/10/24 11:53:40;;;;;;;2.50;2.30;;;13.10;99.90;;;;;;5048900;28;20405;-80
2021/10/24 11:56:11;;;;;;;2.97;2.65;;;13.10;99.90;;;;;;5076826;23;20424;-80
2021/10/24 11:59:04;;;;;;;3.78;2.58;;;13.10;99.90;;;;;;5059062;28;20103;-79
2021/10/24 12:01:30;;;;;;;3.70;3.40;;;13.10;99.90;;;;;;5039783;28;20393;-81
2021/10/24 12:04:05;;;;;;;5.63;2.83;;;13.10;99.90;;;;;;5057074;28;20032;-79
2021/10/24 12:06:50;;;;;;;4.70;2.53;;;13.10;99.90;;;;;;5036753;28;20033;-80
2021/10/24 12:09:34;;;;;;;3.42;2.42;;;13.20;99.90;;;;;;5041751;28;20017;-77
2021/10/24 12:12:34;;;;;;;4.90;2.63;;;13.20;99.90;;;;;;5045920;28;20108;-80
2021/10/24 12:15:06;;;;;;;3.90;2.85;;;13.30;99.90;;;;;;5040526;28;20381;-78
2021/10/24 12:17:34;;;;;;;3.20;2.90;;;13.30;99.90;;;;;;5021300;28;20037;-80
2021/10/24 12:20:28;;;;;;;5.53;4.82;;;13.40;99.90;;;;;;5041871;28;20026;-79
2021/10/24 12:22:59;;;;;;;3.92;2.55;;;13.50;99.90;;;;;;5047039;28;20029;-78
2021/10/24 12:25:38;;;;;;;4.10;2.55;;;13.60;99.90;;;;;;5051738;28;20029;-78
2021/10/24 12:28:13;;;;;;;9.65;3.75;;;13.70;99.90;;;;;;5026956;28;20033;-79
2021/10/24 12:30:40;;;;;;;2.92;2.42;;;13.70;99.90;;;;;;5040979;28;20124;-82
2021/10/24 12:33:08;;;;;;;4.15;2.88;;;13.60;99.90;;;;;;5041180;28;20037;-78
2021/10/24 12:35:44;;;;;;;4.15;2.50;;;13.70;99.90;;;;;;5041879;28;20013;-77
2021/10/24 12:38:10;;;;;;;8.20;2.47;;;13.60;99.90;;;;;;5039959;28;20030;-79
2021/10/24 12:40:36;;;;;;;3.78;2.53;;;13.70;99.90;;;;;;5022371;28;20420;-80
2021/10/24 12:43:13;;;;;;;4.13;2.28;;;13.70;99.90;;;;;;5039908;28;20026;-81
2021/10/24 12:46:00;;;;;;;2.95;2.20;;;13.80;99.90;;;;;;5042428;28;20503;-79
2021/10/24 12:48:39;;;;;;;3.67;2.95;;;13.80;99.90;;;;;;5043348;28;20048;-79
2021/10/24 12:51:22;;;;;;;4.75;2.65;;;13.90;99.90;;;;;;5030307;28;20029;-77
2021/10/24 12:53:48;;;;;;;4.40;3.15;;;13.90;99.90;;;;;;5041330;28;20021;-78